sensor_id;sensor_type;location;lat;lon;timestamp;pressure;altitude;pressure_sealevel;temperature;humidity
39487;BME280;25173;50.430;18.926;2023-11-21T00:01:05;97381.06;;;9.98;88.55
39487;BME280;25173;50.430;18.926;2023-11-21T00:04:06;97381.19;;;9.88;88.46
39487;BME280;25173;50.430;18.926;2023-11-21T00:07:07;97372.81;;;9.84;88.89
39487;BME280;25173;50.430;18.926;2023-11-21T00:10:09;97375.22;;;9.86;89.02
39487;BME280;25173;50.430;18.926;2023-11-21T00:13:10;97368.41;;;9.88;89.06
39487;BME280;25173;50.430;18.926;2023-11-21T00:16:13;97382.28;;;9.87;88.73
39487;BME280;25173;50.430;18.926;2023-11-21T00:19:13;97380.72;;;9.81;88.58
39487;BME280;25173;50.430;18.926;2023-11-21T00:22:14;97381.31;;;9.78;88.76
39487;BME280;25173;50.430;18.926;2023-11-21T00:25:15;97391.06;;;9.79;88.72
39487;BME280;25173;50.430;18.926;2023-11-21T00:28:17;97388.06;;;9.80;89.19
39487;BME280;25173;50.430;18.926;2023-11-21T00:31:18;97403.63;;;9.74;88.75
39487;BME280;25173;50.430;18.926;2023-11-21T00:34:19;97396.63;;;9.68;89.25
39487;BME280;25173;50.430;18.926;2023-11-21T00:37:20;97385.75;;;9.68;89.13
39487;BME280;25173;50.430;18.926;2023-11-21T00:40:21;97390.13;;;9.64;89.53
39487;BME280;25173;50.430;18.926;2023-11-21T00:43:23;97402.41;;;9.62;89.87
39487;BME280;25173;50.430;18.926;2023-11-21T00:46:24;97401.31;;;9.63;90.33
39487;BME280;25173;50.430;18.926;2023-11-21T00:49:27;97399.16;;;9.60;90.18
39487;BME280;25173;50.430;18.926;2023-11-21T00:52:28;97401.53;;;9.66;90.61
39487;BME280;25173;50.430;18.926;2023-11-21T00:55:29;97400.16;;;9.69;90.47
39487;BME280;25173;50.430;18.926;2023-11-21T00:58:30;97402.81;;;9.74;90.33
39487;BME280;25173;50.430;18.926;2023-11-21T01:01:30;97405.53;;;9.74;90.02
39487;BME280;25173;50.430;18.926;2023-11-21T01:04:31;97406.56;;;9.78;90.28
39487;BME280;25173;50.430;18.926;2023-11-21T01:07:34;97400.63;;;9.76;89.92
39487;BME280;25173;50.430;18.926;2023-11-21T01:10:35;97399.75;;;9.81;90.14
39487;BME280;25173;50.430;18.926;2023-11-21T01:13:36;97402.75;;;9.79;90.02
39487;BME280;25173;50.430;18.926;2023-11-21T01:16:37;97395.94;;;9.82;89.82
39487;BME280;25173;50.430;18.926;2023-11-21T01:19:38;97390.56;;;9.77;89.50
39487;BME280;25173;50.430;18.926;2023-11-21T01:22:39;97396.03;;;9.71;89.09
39487;BME280;25173;50.430;18.926;2023-11-21T01:25:39;97399.38;;;9.63;89.45
39487;BME280;25173;50.430;18.926;2023-11-21T01:28:40;97398.81;;;9.66;89.92
39487;BME280;25173;50.430;18.926;2023-11-21T01:31:41;97390.19;;;9.59;89.53
39487;BME280;25173;50.430;18.926;2023-11-21T01:34:42;97395.81;;;9.68;90.11
39487;BME280;25173;50.430;18.926;2023-11-21T01:37:43;97400.66;;;9.71;89.62
39487;BME280;25173;50.430;18.926;2023-11-21T01:40:44;97404.19;;;9.71;89.63
39487;BME280;25173;50.430;18.926;2023-11-21T01:43:46;97407.97;;;9.76;89.66
39487;BME280;25173;50.430;18.926;2023-11-21T01:46:47;97405.53;;;9.74;89.05
39487;BME280;25173;50.430;18.926;2023-11-21T01:49:48;97408.81;;;9.71;89.01
39487;BME280;25173;50.430;18.926;2023-11-21T01:52:49;97402.88;;;9.69;89.13
39487;BME280;25173;50.430;18.926;2023-11-21T01:55:50;97406.91;;;9.71;89.16
39487;BME280;25173;50.430;18.926;2023-11-21T01:58:52;97389.00;;;9.70;89.04
39487;BME280;25173;50.430;18.926;2023-11-21T02:01:52;97397.38;;;9.74;89.21
39487;BME280;25173;50.430;18.926;2023-11-21T02:04:54;97409.59;;;9.77;89.17
39487;BME280;25173;50.430;18.926;2023-11-21T02:07:54;97417.44;;;9.78;88.91
39487;BME280;25173;50.430;18.926;2023-11-21T02:10:56;97416.06;;;9.81;89.11
39487;BME280;25173;50.430;18.926;2023-11-21T02:13:59;97415.50;;;9.84;88.96
39487;BME280;25173;50.430;18.926;2023-11-21T02:17:00;97407.84;;;9.86;88.64
39487;BME280;25173;50.430;18.926;2023-11-21T02:20:02;97416.31;;;9.84;88.47
39487;BME280;25173;50.430;18.926;2023-11-21T02:23:02;97416.06;;;9.81;88.46
39487;BME280;25173;50.430;18.926;2023-11-21T02:26:03;97422.09;;;9.78;88.60
39487;BME280;25173;50.430;18.926;2023-11-21T02:29:04;97410.16;;;9.73;88.67
39487;BME280;25173;50.430;18.926;2023-11-21T02:32:05;97419.19;;;9.69;89.11
39487;BME280;25173;50.430;18.926;2023-11-21T02:35:06;97420.28;;;9.68;89.55
39487;BME280;25173;50.430;18.926;2023-11-21T02:38:08;97428.47;;;9.63;89.26
39487;BME280;25173;50.430;18.926;2023-11-21T02:41:09;97428.03;;;9.51;89.60
39487;BME280;25173;50.430;18.926;2023-11-21T02:44:10;97423.19;;;9.48;90.08
39487;BME280;25173;50.430;18.926;2023-11-21T02:47:11;97427.31;;;9.40;90.11
39487;BME280;25173;50.430;18.926;2023-11-21T02:50:11;97422.94;;;9.44;90.52
39487;BME280;25173;50.430;18.926;2023-11-21T02:53:12;97428.31;;;9.49;90.53
39487;BME280;25173;50.430;18.926;2023-11-21T02:56:13;97423.47;;;9.46;90.29
39487;BME280;25173;50.430;18.926;2023-11-21T02:59:13;97427.81;;;9.42;90.07
39487;BME280;25173;50.430;18.926;2023-11-21T03:02:14;97437.94;;;9.37;90.23
39487;BME280;25173;50.430;18.926;2023-11-21T03:05:16;97433.31;;;9.37;89.88
39487;BME280;25173;50.430;18.926;2023-11-21T03:08:16;97432.50;;;9.37;89.85
39487;BME280;25173;50.430;18.926;2023-11-21T03:11:17;97437.38;;;9.40;90.11
39487;BME280;25173;50.430;18.926;2023-11-21T03:14:19;97439.56;;;9.38;89.72
39487;BME280;25173;50.430;18.926;2023-11-21T03:17:20;97428.13;;;9.41;89.99
39487;BME280;25173;50.430;18.926;2023-11-21T03:20:24;97428.63;;;9.43;89.88
39487;BME280;25173;50.430;18.926;2023-11-21T03:23:31;97429.44;;;9.48;89.63
39487;BME280;25173;50.430;18.926;2023-11-21T03:26:32;97429.38;;;9.53;89.56
39487;BME280;25173;50.430;18.926;2023-11-21T03:29:33;97428.28;;;9.54;89.65
39487;BME280;25173;50.430;18.926;2023-11-21T03:32:34;97433.44;;;9.56;89.39
39487;BME280;25173;50.430;18.926;2023-11-21T03:35:34;97436.38;;;9.59;89.39
39487;BME280;25173;50.430;18.926;2023-11-21T03:38:49;97440.19;;;9.58;89.20
39487;BME280;25173;50.430;18.926;2023-11-21T03:41:50;97444.00;;;9.57;88.88
39487;BME280;25173;50.430;18.926;2023-11-21T03:44:52;97454.31;;;9.60;89.31
39487;BME280;25173;50.430;18.926;2023-11-21T03:47:53;97448.28;;;9.63;89.07
39487;BME280;25173;50.430;18.926;2023-11-21T03:50:57;97451.00;;;9.68;89.33
39487;BME280;25173;50.430;18.926;2023-11-21T03:54:01;97448.81;;;9.70;89.16
39487;BME280;25173;50.430;18.926;2023-11-21T03:57:01;97452.03;;;9.72;89.02
39487;BME280;25173;50.430;18.926;2023-11-21T04:00:03;97454.19;;;9.76;88.94
39487;BME280;25173;50.430;18.926;2023-11-21T04:03:14;97452.50;;;9.80;88.96
39487;BME280;25173;50.430;18.926;2023-11-21T04:06:23;97447.84;;;9.85;88.73
39487;BME280;25173;50.430;18.926;2023-11-21T04:09:48;97460.03;;;9.88;88.72
39487;BME280;25173;50.430;18.926;2023-11-21T04:12:49;97455.19;;;9.85;88.36
39487;BME280;25173;50.430;18.926;2023-11-21T04:15:49;97458.41;;;9.87;88.50
39487;BME280;25173;50.430;18.926;2023-11-21T04:18:50;97464.44;;;9.84;88.18
39487;BME280;25173;50.430;18.926;2023-11-21T04:21:51;97462.28;;;9.81;88.21
39487;BME280;25173;50.430;18.926;2023-11-21T04:24:52;97465.00;;;9.81;88.41
39487;BME280;25173;50.430;18.926;2023-11-21T04:27:52;97463.84;;;9.87;88.70
39487;BME280;25173;50.430;18.926;2023-11-21T04:30:53;97471.75;;;9.88;88.28
39487;BME280;25173;50.430;18.926;2023-11-21T04:33:54;97476.34;;;9.93;88.29
39487;BME280;25173;50.430;18.926;2023-11-21T04:36:54;97475.28;;;9.89;87.84
39487;BME280;25173;50.430;18.926;2023-11-21T04:39:55;97477.44;;;9.92;88.12
39487;BME280;25173;50.430;18.926;2023-11-21T04:42:56;97478.81;;;9.89;87.58
39487;BME280;25173;50.430;18.926;2023-11-21T04:45:57;97485.63;;;9.87;87.52
39487;BME280;25173;50.430;18.926;2023-11-21T04:48:58;97479.38;;;9.86;87.98
39487;BME280;25173;50.430;18.926;2023-11-21T04:51:59;97483.22;;;9.85;87.70
39487;BME280;25173;50.430;18.926;2023-11-21T04:55:00;97490.34;;;9.76;87.07
39487;BME280;25173;50.430;18.926;2023-11-21T04:58:02;97490.09;;;9.72;87.65
39487;BME280;25173;50.430;18.926;2023-11-21T05:01:05;97486.75;;;9.81;88.28
39487;BME280;25173;50.430;18.926;2023-11-21T05:04:05;97486.22;;;9.79;87.55
39487;BME280;25173;50.430;18.926;2023-11-21T05:07:06;97498.22;;;9.78;87.19
39487;BME280;25173;50.430;18.926;2023-11-21T05:10:07;97494.16;;;9.75;87.21
39487;BME280;25173;50.430;18.926;2023-11-21T05:13:11;97489.59;;;9.70;87.18
39487;BME280;25173;50.430;18.926;2023-11-21T05:16:11;97492.06;;;9.67;87.50
39487;BME280;25173;50.430;18.926;2023-11-21T05:19:13;97490.97;;;9.68;88.07
39487;BME280;25173;50.430;18.926;2023-11-21T05:22:13;97491.19;;;9.71;88.09
39487;BME280;25173;50.430;18.926;2023-11-21T05:25:14;97490.63;;;9.74;87.84
39487;BME280;25173;50.430;18.926;2023-11-21T05:28:14;97503.34;;;9.79;88.08
39487;BME280;25173;50.430;18.926;2023-11-21T05:31:15;97502.53;;;9.84;87.99
39487;BME280;25173;50.430;18.926;2023-11-21T05:34:16;97509.28;;;9.86;87.58
39487;BME280;25173;50.430;18.926;2023-11-21T05:37:16;97507.16;;;9.83;87.32
39487;BME280;25173;50.430;18.926;2023-11-21T05:40:18;97507.69;;;9.85;87.61
39487;BME280;25173;50.430;18.926;2023-11-21T05:43:18;97519.34;;;9.86;87.42
39487;BME280;25173;50.430;18.926;2023-11-21T05:46:19;97519.59;;;9.89;87.64
39487;BME280;25173;50.430;18.926;2023-11-21T05:49:20;97518.94;;;10.02;88.14
39487;BME280;25173;50.430;18.926;2023-11-21T05:52:22;97515.03;;;10.13;87.57
39487;BME280;25173;50.430;18.926;2023-11-21T05:55:22;97522.88;;;10.20;87.58
39487;BME280;25173;50.430;18.926;2023-11-21T05:58:25;97528.81;;;10.27;87.17
39487;BME280;25173;50.430;18.926;2023-11-21T06:01:26;97521.63;;;10.36;87.35
39487;BME280;25173;50.430;18.926;2023-11-21T06:04:28;97526.56;;;10.34;86.29
39487;BME280;25173;50.430;18.926;2023-11-21T06:07:29;97525.22;;;10.32;86.66
39487;BME280;25173;50.430;18.926;2023-11-21T06:10:29;97530.44;;;10.28;86.44
39487;BME280;25173;50.430;18.926;2023-11-21T06:13:30;97539.09;;;10.30;86.75
39487;BME280;25173;50.430;18.926;2023-11-21T06:16:31;97539.06;;;10.35;86.85
39487;BME280;25173;50.430;18.926;2023-11-21T06:19:31;97548.50;;;10.43;86.78
39487;BME280;25173;50.430;18.926;2023-11-21T06:22:32;97560.16;;;10.48;86.88
39487;BME280;25173;50.430;18.926;2023-11-21T06:25:33;97550.81;;;10.55;86.68
39487;BME280;25173;50.430;18.926;2023-11-21T06:28:36;97557.09;;;10.55;86.04
39487;BME280;25173;50.430;18.926;2023-11-21T06:31:37;97554.00;;;10.62;86.88
39487;BME280;25173;50.430;18.926;2023-11-21T06:34:38;97565.91;;;10.71;86.84
39487;BME280;25173;50.430;18.926;2023-11-21T06:37:38;97557.16;;;10.74;86.22
39487;BME280;25173;50.430;18.926;2023-11-21T06:40:39;97563.94;;;10.76;86.22
39487;BME280;25173;50.430;18.926;2023-11-21T06:43:42;97574.13;;;10.66;85.55
39487;BME280;25173;50.430;18.926;2023-11-21T06:46:46;97567.88;;;10.65;86.30
39487;BME280;25173;50.430;18.926;2023-11-21T06:49:48;97567.59;;;10.67;85.87
39487;BME280;25173;50.430;18.926;2023-11-21T06:52:49;97562.72;;;10.64;85.76
39487;BME280;25173;50.430;18.926;2023-11-21T06:55:50;97571.97;;;10.63;85.78
39487;BME280;25173;50.430;18.926;2023-11-21T06:58:50;97572.50;;;10.65;85.97
39487;BME280;25173;50.430;18.926;2023-11-21T07:01:54;97576.34;;;10.64;85.61
39487;BME280;25173;50.430;18.926;2023-11-21T07:04:55;97583.44;;;10.60;85.62
39487;BME280;25173;50.430;18.926;2023-11-21T07:07:55;97584.56;;;10.59;85.53
39487;BME280;25173;50.430;18.926;2023-11-21T07:10:56;97583.97;;;10.62;86.10
39487;BME280;25173;50.430;18.926;2023-11-21T07:13:57;97581.78;;;10.64;85.59
39487;BME280;25173;50.430;18.926;2023-11-21T07:16:57;97583.94;;;10.67;85.65
39487;BME280;25173;50.430;18.926;2023-11-21T07:19:58;97590.13;;;10.72;85.35
39487;BME280;25173;50.430;18.926;2023-11-21T07:22:59;97583.94;;;10.67;84.89
39487;BME280;25173;50.430;18.926;2023-11-21T07:26:00;97587.69;;;10.71;85.46
39487;BME280;25173;50.430;18.926;2023-11-21T07:29:02;97594.69;;;10.77;84.93
39487;BME280;25173;50.430;18.926;2023-11-21T07:32:03;97584.69;;;10.72;84.69
39487;BME280;25173;50.430;18.926;2023-11-21T07:35:04;97587.34;;;10.77;85.27
39487;BME280;25173;50.430;18.926;2023-11-21T07:38:04;97583.75;;;10.82;84.78
39487;BME280;25173;50.430;18.926;2023-11-21T07:41:05;97591.34;;;10.85;84.86
39487;BME280;25173;50.430;18.926;2023-11-21T07:44:08;97584.72;;;10.91;84.74
39487;BME280;25173;50.430;18.926;2023-11-21T07:47:09;97592.34;;;10.94;84.59
39487;BME280;25173;50.430;18.926;2023-11-21T07:50:09;97597.44;;;11.01;84.74
39487;BME280;25173;50.430;18.926;2023-11-21T07:53:10;97594.59;;;11.11;84.49
39487;BME280;25173;50.430;18.926;2023-11-21T07:56:11;97602.06;;;11.24;84.75
39487;BME280;25173;50.430;18.926;2023-11-21T07:59:12;97601.63;;;11.36;84.73
39487;BME280;25173;50.430;18.926;2023-11-21T08:02:14;97605.25;;;11.50;84.71
39487;BME280;25173;50.430;18.926;2023-11-21T08:05:16;97596.13;;;11.59;83.72
39487;BME280;25173;50.430;18.926;2023-11-21T08:08:17;97610.13;;;11.53;82.47
39487;BME280;25173;50.430;18.926;2023-11-21T08:11:18;97608.56;;;11.47;82.58
39487;BME280;25173;50.430;18.926;2023-11-21T08:14:20;97612.47;;;11.41;82.78
39487;BME280;25173;50.430;18.926;2023-11-21T08:17:20;97620.53;;;11.27;81.24
39487;BME280;25173;50.430;18.926;2023-11-21T08:20:21;97616.63;;;11.14;81.85
39487;BME280;25173;50.430;18.926;2023-11-21T08:23:23;97613.44;;;11.07;81.70
39487;BME280;25173;50.430;18.926;2023-11-21T08:26:26;97608.75;;;10.89;81.66
39487;BME280;25173;50.430;18.926;2023-11-21T08:29:28;97613.69;;;10.82;82.12
39487;BME280;25173;50.430;18.926;2023-11-21T08:32:29;97622.00;;;10.72;81.94
39487;BME280;25173;50.430;18.926;2023-11-21T08:35:31;97622.84;;;10.67;82.46
39487;BME280;25173;50.430;18.926;2023-11-21T08:38:31;97621.13;;;10.76;82.81
39487;BME280;25173;50.430;18.926;2023-11-21T08:41:32;97625.41;;;10.82;82.01
39487;BME280;25173;50.430;18.926;2023-11-21T08:44:33;97625.88;;;10.89;82.65
39487;BME280;25173;50.430;18.926;2023-11-21T08:47:34;97627.69;;;10.99;82.10
39487;BME280;25173;50.430;18.926;2023-11-21T08:50:35;97633.59;;;11.06;81.79
39487;BME280;25173;50.430;18.926;2023-11-21T08:53:35;97637.06;;;11.12;82.15
39487;BME280;25173;50.430;18.926;2023-11-21T08:56:36;97634.75;;;11.24;82.24
39487;BME280;25173;50.430;18.926;2023-11-21T08:59:37;97643.94;;;11.33;81.75
39487;BME280;25173;50.430;18.926;2023-11-21T09:02:38;97635.16;;;11.36;81.17
39487;BME280;25173;50.430;18.926;2023-11-21T09:05:39;97630.50;;;11.37;81.13
39487;BME280;25173;50.430;18.926;2023-11-21T09:08:40;97632.13;;;11.38;80.93
39487;BME280;25173;50.430;18.926;2023-11-21T09:11:42;97633.69;;;11.44;81.36
39487;BME280;25173;50.430;18.926;2023-11-21T09:14:44;97640.78;;;11.45;80.06
39487;BME280;25173;50.430;18.926;2023-11-21T09:17:45;97641.69;;;11.35;79.95
39487;BME280;25173;50.430;18.926;2023-11-21T09:20:46;97630.88;;;11.30;79.94
39487;BME280;25173;50.430;18.926;2023-11-21T09:23:48;97633.88;;;11.28;80.24
39487;BME280;25173;50.430;18.926;2023-11-21T09:26:49;97636.84;;;11.32;80.32
39487;BME280;25173;50.430;18.926;2023-11-21T09:29:49;97639.75;;;11.41;80.46
39487;BME280;25173;50.430;18.926;2023-11-21T09:32:51;97631.03;;;11.39;80.41
39487;BME280;25173;50.430;18.926;2023-11-21T09:35:51;97636.13;;;11.45;80.38
39487;BME280;25173;50.430;18.926;2023-11-21T09:38:53;97626.84;;;11.46;79.44
39487;BME280;25173;50.430;18.926;2023-11-21T09:42:03;97629.13;;;11.39;79.36
39487;BME280;25173;50.430;18.926;2023-11-21T09:45:17;97626.69;;;11.38;79.34
39487;BME280;25173;50.430;18.926;2023-11-21T09:48:20;97629.63;;;11.41;79.82
39487;BME280;25173;50.430;18.926;2023-11-21T09:51:23;97633.41;;;11.45;79.74
39487;BME280;25173;50.430;18.926;2023-11-21T09:54:28;97635.25;;;11.50;79.88
39487;BME280;25173;50.430;18.926;2023-11-21T09:57:29;97628.16;;;11.49;79.61
39487;BME280;25173;50.430;18.926;2023-11-21T10:00:30;97628.69;;;11.51;80.16
39487;BME280;25173;50.430;18.926;2023-11-21T10:03:35;97637.41;;;11.53;79.76
39487;BME280;25173;50.430;18.926;2023-11-21T10:06:41;97624.78;;;11.57;80.51
39487;BME280;25173;50.430;18.926;2023-11-21T10:09:42;97631.22;;;11.66;80.34
39487;BME280;25173;50.430;18.926;2023-11-21T10:12:43;97636.91;;;11.70;79.86
39487;BME280;25173;50.430;18.926;2023-11-21T10:15:50;97640.13;;;11.72;79.32
39487;BME280;25173;50.430;18.926;2023-11-21T10:18:52;97642.84;;;11.53;78.33
39487;BME280;25173;50.430;18.926;2023-11-21T10:21:55;97658.84;;;11.17;77.79
39487;BME280;25173;50.430;18.926;2023-11-21T10:24:58;97651.22;;;10.90;78.73
39487;BME280;25173;50.430;18.926;2023-11-21T10:28:01;97650.84;;;10.73;79.42
39487;BME280;25173;50.430;18.926;2023-11-21T10:31:06;97648.13;;;10.73;80.67
39487;BME280;25173;50.430;18.926;2023-11-21T10:34:15;97639.72;;;10.69;80.55
39487;BME280;25173;50.430;18.926;2023-11-21T10:37:16;97644.81;;;10.76;81.05
39487;BME280;25173;50.430;18.926;2023-11-21T10:40:17;97638.47;;;10.85;81.09
39487;BME280;25173;50.430;18.926;2023-11-21T10:43:18;97642.41;;;10.98;80.87
39487;BME280;25173;50.430;18.926;2023-11-21T10:46:19;97643.94;;;11.09;81.00
39487;BME280;25173;50.430;18.926;2023-11-21T10:49:20;97638.19;;;11.11;80.57
39487;BME280;25173;50.430;18.926;2023-11-21T10:52:21;97635.16;;;11.12;81.02
39487;BME280;25173;50.430;18.926;2023-11-21T10:55:22;97638.94;;;11.16;80.46
39487;BME280;25173;50.430;18.926;2023-11-21T10:58:24;97635.47;;;11.11;80.41
39487;BME280;25173;50.430;18.926;2023-11-21T11:01:26;97637.88;;;11.12;80.57
39487;BME280;25173;50.430;18.926;2023-11-21T11:04:30;97635.41;;;11.16;80.80
39487;BME280;25173;50.430;18.926;2023-11-21T11:07:31;97631.88;;;11.15;80.70
39487;BME280;25173;50.430;18.926;2023-11-21T11:10:34;97634.75;;;11.24;81.26
39487;BME280;25173;50.430;18.926;2023-11-21T11:13:37;97632.22;;;11.33;80.92
39487;BME280;25173;50.430;18.926;2023-11-21T11:16:39;97635.88;;;11.42;80.91
39487;BME280;25173;50.430;18.926;2023-11-21T11:19:41;97630.09;;;11.48;80.41
39487;BME280;25173;50.430;18.926;2023-11-21T11:22:57;97627.06;;;11.50;80.43
39487;BME280;25173;50.430;18.926;2023-11-21T11:29:42;97630.75;;;11.59;79.27
39487;BME280;25173;50.430;18.926;2023-11-21T11:33:04;97633.19;;;11.60;79.78
39487;BME280;25173;50.430;18.926;2023-11-21T11:36:29;97632.84;;;11.67;79.89
39487;BME280;25173;50.430;18.926;2023-11-21T11:39:37;97635.75;;;11.76;79.87
39487;BME280;25173;50.430;18.926;2023-11-21T11:42:38;97638.19;;;11.77;79.32
39487;BME280;25173;50.430;18.926;2023-11-21T11:45:39;97637.66;;;11.75;78.90
39487;BME280;25173;50.430;18.926;2023-11-21T11:48:42;97637.72;;;11.70;78.70
39487;BME280;25173;50.430;18.926;2023-11-21T11:51:45;97648.69;;;11.65;78.55
39487;BME280;25173;50.430;18.926;2023-11-21T11:54:46;97638.94;;;11.59;78.76
39487;BME280;25173;50.430;18.926;2023-11-21T11:57:54;97652.13;;;11.52;78.83
39487;BME280;25173;50.430;18.926;2023-11-21T12:00:58;97642.97;;;11.43;78.99
39487;BME280;25173;50.430;18.926;2023-11-21T12:07:17;97649.25;;;11.43;79.80
39487;BME280;25173;50.430;18.926;2023-11-21T12:10:20;97649.41;;;11.52;79.76
39487;BME280;25173;50.430;18.926;2023-11-21T12:13:21;97649.03;;;11.58;79.77
39487;BME280;25173;50.430;18.926;2023-11-21T12:16:25;97648.50;;;11.56;79.42
39487;BME280;25173;50.430;18.926;2023-11-21T12:19:28;97654.84;;;11.52;79.36
39487;BME280;25173;50.430;18.926;2023-11-21T12:22:28;97657.38;;;11.48;79.84
39487;BME280;25173;50.430;18.926;2023-11-21T12:25:30;97652.25;;;11.42;79.63
39487;BME280;25173;50.430;18.926;2023-11-21T12:28:34;97655.66;;;11.34;79.52
39487;BME280;25173;50.430;18.926;2023-11-21T12:31:35;97649.25;;;11.19;79.50
39487;BME280;25173;50.430;18.926;2023-11-21T12:34:36;97652.03;;;11.14;80.06
39487;BME280;25173;50.430;18.926;2023-11-21T12:37:40;97652.63;;;11.11;80.29
39487;BME280;25173;50.430;18.926;2023-11-21T12:40:40;97648.75;;;11.17;80.64
39487;BME280;25173;50.430;18.926;2023-11-21T12:43:41;97654.66;;;11.24;80.45
39487;BME280;25173;50.430;18.926;2023-11-21T12:46:42;97658.66;;;11.32;80.59
39487;BME280;25173;50.430;18.926;2023-11-21T12:49:45;97653.38;;;11.41;80.46
39487;BME280;25173;50.430;18.926;2023-11-21T12:52:46;97658.75;;;11.46;80.25
39487;BME280;25173;50.430;18.926;2023-11-21T12:55:50;97665.31;;;11.45;80.01
39487;BME280;25173;50.430;18.926;2023-11-21T12:58:54;97664.22;;;11.46;80.10
39487;BME280;25173;50.430;18.926;2023-11-21T13:01:57;97667.75;;;11.46;80.42
39487;BME280;25173;50.430;18.926;2023-11-21T13:05:00;97670.69;;;11.50;80.19
39487;BME280;25173;50.430;18.926;2023-11-21T13:08:07;97670.47;;;11.46;79.89
39487;BME280;25173;50.430;18.926;2023-11-21T13:11:10;97663.75;;;11.39;80.10
39487;BME280;25173;50.430;18.926;2023-11-21T13:14:11;97673.03;;;11.38;80.30
39487;BME280;25173;50.430;18.926;2023-11-21T13:17:12;97672.22;;;11.37;80.59
39487;BME280;25173;50.430;18.926;2023-11-21T13:20:13;97670.03;;;11.39;80.76
39487;BME280;25173;50.430;18.926;2023-11-21T13:23:17;97675.47;;;11.39;80.62
39487;BME280;25173;50.430;18.926;2023-11-21T13:26:18;97679.75;;;11.45;80.79
39487;BME280;25173;50.430;18.926;2023-11-21T13:29:21;97673.72;;;11.48;80.56
39487;BME280;25173;50.430;18.926;2023-11-21T13:32:21;97671.00;;;11.48;80.44
39487;BME280;25173;50.430;18.926;2023-11-21T13:35:23;97681.03;;;11.53;80.75
39487;BME280;25173;50.430;18.926;2023-11-21T13:38:31;97682.59;;;11.59;80.27
39487;BME280;25173;50.430;18.926;2023-11-21T13:41:33;97689.66;;;11.60;80.51
39487;BME280;25173;50.430;18.926;2023-11-21T13:44:34;97673.22;;;11.65;80.63
39487;BME280;25173;50.430;18.926;2023-11-21T13:47:38;97684.59;;;11.72;80.47
39487;BME280;25173;50.430;18.926;2023-11-21T13:50:40;97685.16;;;11.74;80.29
39487;BME280;25173;50.430;18.926;2023-11-21T13:53:49;97691.03;;;11.81;80.06
39487;BME280;25173;50.430;18.926;2023-11-21T13:56:53;97691.13;;;11.76;79.61
39487;BME280;25173;50.430;18.926;2023-11-21T13:59:55;97690.53;;;11.79;79.95
39487;BME280;25173;50.430;18.926;2023-11-21T14:02:56;97694.03;;;11.85;80.07
39487;BME280;25173;50.430;18.926;2023-11-21T14:06:00;97695.84;;;11.89;79.88
39487;BME280;25173;50.430;18.926;2023-11-21T14:09:08;97690.03;;;11.96;80.05
39487;BME280;25173;50.430;18.926;2023-11-21T14:12:08;97696.22;;;12.01;79.65
39487;BME280;25173;50.430;18.926;2023-11-21T14:15:10;97700.38;;;11.99;79.37
39487;BME280;25173;50.430;18.926;2023-11-21T14:18:12;97699.59;;;11.93;79.20
39487;BME280;25173;50.430;18.926;2023-11-21T14:21:18;97705.75;;;11.85;78.97
39487;BME280;25173;50.430;18.926;2023-11-21T14:24:19;97705.78;;;11.80;79.20
39487;BME280;25173;50.430;18.926;2023-11-21T14:27:20;97713.16;;;11.80;79.60
39487;BME280;25173;50.430;18.926;2023-11-21T14:30:21;97711.19;;;11.85;79.61
39487;BME280;25173;50.430;18.926;2023-11-21T14:33:22;97714.66;;;11.91;79.43
39487;BME280;25173;50.430;18.926;2023-11-21T14:36:23;97720.41;;;11.89;79.05
39487;BME280;25173;50.430;18.926;2023-11-21T14:39:24;97724.75;;;11.90;79.12
39487;BME280;25173;50.430;18.926;2023-11-21T14:42:27;97723.88;;;11.95;79.24
39487;BME280;25173;50.430;18.926;2023-11-21T14:45:30;97728.47;;;11.99;78.80
39487;BME280;25173;50.430;18.926;2023-11-21T14:48:30;97730.06;;;12.00;78.81
39487;BME280;25173;50.430;18.926;2023-11-21T14:51:54;97736.66;;;11.99;78.27
39487;BME280;25173;50.430;18.926;2023-11-21T14:55:01;97732.88;;;11.95;78.14
39487;BME280;25173;50.430;18.926;2023-11-21T14:58:21;97738.78;;;11.84;78.02
39487;BME280;25173;50.430;18.926;2023-11-21T15:01:31;97736.09;;;11.79;78.16
39487;BME280;25173;50.430;18.926;2023-11-21T15:04:55;97737.50;;;11.71;78.19
39487;BME280;25173;50.430;18.926;2023-11-21T15:08:02;97741.59;;;11.74;78.68
39487;BME280;25173;50.430;18.926;2023-11-21T15:11:20;97731.41;;;11.84;78.76
39487;BME280;25173;50.430;18.926;2023-11-21T15:14:25;97737.66;;;11.85;78.31
39487;BME280;25173;50.430;18.926;2023-11-21T15:17:31;97737.78;;;11.75;77.79
39487;BME280;25173;50.430;18.926;2023-11-21T15:20:33;97740.84;;;11.68;77.99
39487;BME280;25173;50.430;18.926;2023-11-21T15:23:33;97745.84;;;11.61;78.10
39487;BME280;25173;50.430;18.926;2023-11-21T15:26:35;97753.09;;;11.47;77.91
39487;BME280;25173;50.430;18.926;2023-11-21T15:29:35;97756.22;;;11.35;78.07
39487;BME280;25173;50.430;18.926;2023-11-21T15:32:36;97754.34;;;11.31;78.53
39487;BME280;25173;50.430;18.926;2023-11-21T15:35:37;97761.19;;;11.28;78.73
39487;BME280;25173;50.430;18.926;2023-11-21T15:38:40;97763.09;;;11.27;78.61
39487;BME280;25173;50.430;18.926;2023-11-21T15:41:40;97774.88;;;10.94;77.35
39487;BME280;25173;50.430;18.926;2023-11-21T15:44:41;97781.09;;;10.66;77.95
39487;BME280;25173;50.430;18.926;2023-11-21T15:47:42;97794.00;;;10.50;78.11
39487;BME280;25173;50.430;18.926;2023-11-21T15:50:43;97794.34;;;10.38;77.96
39487;BME280;25173;50.430;18.926;2023-11-21T15:53:44;97798.78;;;10.24;78.04
39487;BME280;25173;50.430;18.926;2023-11-21T15:56:44;97809.16;;;10.12;78.10
39487;BME280;25173;50.430;18.926;2023-11-21T15:59:45;97811.38;;;10.05;78.21
39487;BME280;25173;50.430;18.926;2023-11-21T16:02:46;97818.44;;;10.01;78.38